Time;durP1;ratioP1;P1;durP2;ratioP2;P2;SDS_P1;SDS_P2;PMS_P1;PMS_P2;Temp;Humidity;BMP_temperature;BMP_pressure;BME280_temperature;BME280_humidity;BME280_pressure;Samples;Min_cycle;Max_cycle;Signal;HPM_P1;HPM_P2
2022/11/10 00:00:19;;;;;;;1.97;1.70;;;12.30;99.90;;;;;;5080187;28;20806;-83
2022/11/10 00:02:46;;;;;;;1.90;1.80;;;12.30;99.90;;;;;;5079065;28;20476;-84
2022/11/10 00:05:14;;;;;;;2.27;2.10;;;12.30;99.90;;;;;;5085644;28;20454;-84
2022/11/10 00:07:41;;;;;;;2.40;2.20;;;12.30;99.90;;;;;;5094878;28;20450;-84
2022/11/10 00:10:09;;;;;;;1.73;1.63;;;12.30;99.90;;;;;;5093252;28;20452;-84
2022/11/10 00:12:36;;;;;;;1.93;1.80;;;12.30;99.90;;;;;;5079478;28;20463;-84
2022/11/10 00:17:50;;;;;;;1.40;1.40;;;12.40;99.90;;;;;;5078604;28;20516;-84
2022/11/10 00:20:17;;;;;;;2.20;2.00;;;12.20;99.90;;;;;;5089987;28;20992;-83
2022/11/10 00:22:43;;;;;;;1.90;1.57;;;12.20;99.90;;;;;;5098888;28;20465;-84
2022/11/10 00:25:11;;;;;;;2.23;1.67;;;12.20;99.90;;;;;;5097173;28;21095;-84
2022/11/10 00:27:38;;;;;;;3.80;1.97;;;12.10;99.90;;;;;;5098478;28;20514;-84
2022/11/10 00:30:07;;;;;;;1.80;1.70;;;12.00;99.90;;;;;;5089999;28;20450;-84
2022/11/10 00:32:34;;;;;;;1.57;1.47;;;12.00;99.90;;;;;;5078967;28;20471;-83
2022/11/10 00:35:01;;;;;;;2.17;1.73;;;12.00;99.90;;;;;;5085703;28;20504;-84
2022/11/10 00:37:27;;;;;;;2.60;2.40;;;12.00;99.90;;;;;;5098834;28;20453;-84
2022/11/10 00:39:54;;;;;;;1.27;1.17;;;11.90;99.90;;;;;;5098215;28;20450;-84
2022/11/10 00:42:21;;;;;;;2.20;1.53;;;12.00;99.90;;;;;;5092817;28;20453;-83
2022/11/10 00:44:48;;;;;;;2.40;2.30;;;12.10;99.90;;;;;;5077988;28;20447;-83
2022/11/10 00:47:16;;;;;;;2.37;2.03;;;12.10;99.90;;;;;;5078220;28;20848;-84
2022/11/10 00:49:42;;;;;;;2.20;1.90;;;12.20;99.90;;;;;;5078113;28;20455;-84
2022/11/10 00:52:09;;;;;;;2.73;2.00;;;12.30;99.90;;;;;;5077770;28;20451;-84
2022/11/10 00:54:36;;;;;;;1.70;1.60;;;12.30;99.90;;;;;;5078413;28;20502;-84
2022/11/10 00:57:03;;;;;;;3.27;2.40;;;12.40;99.90;;;;;;5077938;28;20451;-84
2022/11/10 00:59:29;;;;;;;3.53;2.33;;;12.40;99.90;;;;;;5077350;28;20469;-84
2022/11/10 01:01:56;;;;;;;2.30;2.10;;;12.40;99.90;;;;;;5077868;28;20819;-84
2022/11/10 01:04:24;;;;;;;2.10;2.00;;;12.40;99.90;;;;;;5077576;28;20473;-84
2022/11/10 01:06:51;;;;;;;1.70;1.60;;;12.40;99.90;;;;;;5077915;28;20451;-83
2022/11/10 01:09:18;;;;;;;2.07;1.90;;;12.40;99.90;;;;;;5077397;28;20839;-84
2022/11/10 01:11:45;;;;;;;2.73;2.07;;;12.50;99.90;;;;;;5089305;28;20459;-83
2022/11/10 01:14:11;;;;;;;2.60;2.40;;;12.50;99.90;;;;;;5097454;28;20473;-84
2022/11/10 01:16:38;;;;;;;2.33;2.07;;;12.50;99.90;;;;;;5087641;28;20451;-84
2022/11/10 01:19:05;;;;;;;2.40;1.83;;;12.50;99.90;;;;;;5077014;28;20469;-83
2022/11/10 01:21:33;;;;;;;1.93;1.73;;;12.60;99.90;;;;;;5077109;28;20465;-84
2022/11/10 01:24:00;;;;;;;1.73;1.63;;;12.50;99.90;;;;;;5077326;28;20470;-84
2022/11/10 01:26:27;;;;;;;3.63;2.70;;;12.60;99.90;;;;;;5085522;28;20449;-84
2022/11/10 01:28:53;;;;;;;2.27;2.07;;;12.60;99.90;;;;;;5082787;28;20451;-84
2022/11/10 01:31:22;;;;;;;2.20;2.00;;;12.60;99.90;;;;;;5077139;28;20454;-83
2022/11/10 01:33:49;;;;;;;2.07;1.70;;;12.20;99.90;;;;;;5076901;28;20470;-84
2022/11/10 01:36:16;;;;;;;2.60;1.90;;;12.30;99.90;;;;;;5077142;28;20490;-84
2022/11/10 01:38:44;;;;;;;1.90;1.80;;;12.30;99.90;;;;;;5083323;28;20453;-83
2022/11/10 01:41:14;;;;;;;3.50;2.17;;;12.40;99.90;;;;;;5097005;28;20447;-84
2022/11/10 01:43:41;;;;;;;2.60;2.10;;;12.40;99.90;;;;;;5096828;28;21041;-84
2022/11/10 01:46:09;;;;;;;2.90;2.20;;;12.40;99.90;;;;;;5094710;28;20993;-84
2022/11/10 01:48:40;;;;;;;3.13;2.50;;;12.30;99.90;;;;;;5076929;28;20454;-84
2022/11/10 01:51:12;;;;;;;1.90;1.77;;;12.30;99.90;;;;;;5079445;28;20454;-84
2022/11/10 01:53:42;;;;;;;3.20;2.17;;;12.30;99.90;;;;;;5097088;28;20473;-84
2022/11/10 01:56:13;;;;;;;2.00;1.90;;;12.30;99.90;;;;;;5091111;28;20489;-84
2022/11/10 01:58:45;;;;;;;1.83;1.67;;;12.30;99.90;;;;;;5075914;28;20442;-84
2022/11/10 02:01:12;;;;;;;2.83;2.63;;;12.20;99.90;;;;;;5076438;28;20970;-83
2022/11/10 02:03:43;;;;;;;2.07;1.97;;;12.20;99.90;;;;;;5077866;28;20474;-83
2022/11/10 02:06:11;;;;;;;2.07;1.90;;;12.20;99.90;;;;;;5097070;28;20445;-84
2022/11/10 02:08:38;;;;;;;2.63;2.40;;;12.20;99.90;;;;;;5096744;28;20442;-84
2022/11/10 02:11:05;;;;;;;2.93;2.40;;;12.20;99.90;;;;;;5096833;28;20450;-84
2022/11/10 02:13:33;;;;;;;1.97;1.87;;;12.20;99.90;;;;;;5097332;28;20474;-84
2022/11/10 02:16:00;;;;;;;2.30;2.20;;;12.20;99.90;;;;;;5096802;28;20489;-84
2022/11/10 02:18:27;;;;;;;2.30;2.10;;;12.20;99.90;;;;;;5096346;28;20458;-84
2022/11/10 02:20:55;;;;;;;3.10;2.90;;;12.10;99.90;;;;;;5096673;28;20452;-84
2022/11/10 02:23:43;;;;;;;2.90;2.70;;;12.10;99.90;;;;;;5093907;28;20475;-83
2022/11/10 02:26:10;;;;;;;9.30;2.70;;;12.00;99.90;;;;;;5097230;28;20670;-83
2022/11/10 02:28:38;;;;;;;2.20;2.00;;;12.00;99.90;;;;;;5077593;28;20462;-84
2022/11/10 02:31:05;;;;;;;2.67;2.20;;;11.90;99.90;;;;;;5076134;28;20457;-84
2022/11/10 02:33:32;;;;;;;2.40;2.20;;;11.90;99.90;;;;;;5076982;28;20471;-84
2022/11/10 02:36:00;;;;;;;2.73;1.90;;;11.80;99.90;;;;;;5078046;28;20847;-84
2022/11/10 02:38:27;;;;;;;2.40;2.20;;;11.70;99.90;;;;;;5092128;28;20787;-84
2022/11/10 02:40:54;;;;;;;2.13;1.93;;;11.60;99.90;;;;;;5096756;28;20458;-84
2022/11/10 02:43:20;;;;;;;2.23;2.10;;;11.60;99.90;;;;;;5095468;28;20485;-84
2022/11/10 02:45:47;;;;;;;2.40;2.20;;;11.50;99.90;;;;;;5094820;28;20472;-84
2022/11/10 02:48:15;;;;;;;3.03;1.90;;;11.40;99.90;;;;;;5094447;28;20460;-83
2022/11/10 02:50:42;;;;;;;2.00;1.90;;;11.40;99.90;;;;;;5094875;28;20458;-83
2022/11/10 02:53:11;;;;;;;2.50;2.30;;;11.30;99.90;;;;;;5081957;28;20485;-83
2022/11/10 02:55:38;;;;;;;4.43;1.80;;;11.20;99.90;;;;;;5074938;28;20477;-83
2022/11/10 02:58:05;;;;;;;4.40;2.57;;;11.20;99.90;;;;;;5093568;28;20459;-83
2022/11/10 03:00:32;;;;;;;2.20;1.97;;;11.10;99.90;;;;;;5094448;28;20452;-83
2022/11/10 03:03:01;;;;;;;2.87;2.67;;;11.00;99.90;;;;;;5094761;28;20473;-83
2022/11/10 03:05:27;;;;;;;2.33;1.87;;;11.00;99.90;;;;;;5094296;28;20492;-83
2022/11/10 03:07:55;;;;;;;2.90;1.80;;;10.90;99.90;;;;;;5077265;28;20450;-83
2022/11/10 03:10:23;;;;;;;2.67;2.20;;;10.90;99.90;;;;;;5076482;28;20454;-82
2022/11/10 03:12:53;;;;;;;2.70;2.50;;;10.90;99.90;;;;;;5078370;28;20478;-83
2022/11/10 03:15:20;;;;;;;2.57;2.37;;;10.80;99.90;;;;;;5077824;28;20506;-82
2022/11/10 03:17:47;;;;;;;2.60;2.10;;;10.80;99.90;;;;;;5079659;28;20449;-83
2022/11/10 03:20:14;;;;;;;2.25;1.83;;;10.70;99.90;;;;;;5099207;28;20448;-83
2022/11/10 03:22:41;;;;;;;2.50;2.30;;;10.70;99.90;;;;;;5098102;28;20225;-83
2022/11/10 03:25:09;;;;;;;2.43;1.97;;;10.60;99.90;;;;;;5098555;28;20444;-84
2022/11/10 03:27:37;;;;;;;2.17;1.98;;;10.60;99.90;;;;;;5098063;28;20471;-83
2022/11/10 03:30:05;;;;;;;2.70;2.42;;;10.50;99.90;;;;;;5097661;28;20213;-83
2022/11/10 03:32:32;;;;;;;2.78;2.58;;;10.50;99.90;;;;;;5077940;28;20231;-83
2022/11/10 03:34:59;;;;;;;3.97;2.25;;;10.40;99.90;;;;;;5078212;28;20237;-83
2022/11/10 03:37:26;;;;;;;3.83;3.37;;;10.40;99.90;;;;;;5057511;28;20705;-83
2022/11/10 03:39:52;;;;;;;2.70;2.50;;;10.40;99.90;;;;;;5057888;28;20451;-82
2022/11/10 03:42:19;;;;;;;5.77;2.80;;;10.40;99.90;;;;;;5093718;28;20449;-83
2022/11/10 07:33:30;;;;;;;4.63;4.22;;;9.50;99.90;;;;;;5620767;22;20238;-86
2022/11/10 08:14:06;;;;;;;9.48;4.25;;;10.10;99.90;;;;;;4741408;30;20587;-86
2022/11/10 08:20:14;;;;;;;3.67;3.33;;;10.30;99.90;;;;;;4811705;29;20824;-85
2022/11/10 08:33:10;;;;;;;16.90;4.90;;;10.30;99.90;;;;;;4909276;29;20477;-89
2022/11/10 08:35:41;;;;;;;5.07;3.87;;;10.40;99.90;;;;;;4954337;28;20838;-84
2022/11/10 08:38:11;;;;;;;6.17;3.10;;;10.50;99.90;;;;;;5021979;28;20455;-84
2022/11/10 08:47:34;;;;;;;2.30;2.20;;;10.60;99.90;;;;;;5009786;28;20421;-86
2022/11/10 08:50:01;;;;;;;3.20;2.43;;;10.70;99.90;;;;;;4998342;28;20552;-82
2022/11/10 08:52:30;;;;;;;2.30;2.20;;;10.60;99.90;;;;;;5004290;28;20457;-83
2022/11/10 08:54:56;;;;;;;5.03;1.90;;;10.60;99.90;;;;;;5000158;28;20570;-83
2022/11/10 08:57:38;;;;;;;4.43;3.00;;;10.80;99.90;;;;;;5013995;28;20571;-87
2022/11/10 09:00:06;;;;;;;4.37;3.60;;;11.00;99.90;;;;;;5017856;28;20547;-85
2022/11/10 09:05:16;;;;;;;3.20;2.63;;;11.40;99.90;;;;;;5004372;28;20457;-85
2022/11/10 09:30:13;;;;;;;3.63;3.00;;;11.90;99.90;;;;;;5033381;28;20987;-85
2022/11/10 09:32:40;;;;;;;2.30;2.10;;;12.00;99.90;;;;;;5031620;28;20570;-84
2022/11/10 09:42:06;;;;;;;4.47;2.60;;;12.50;99.90;;;;;;5020168;28;20433;-87
2022/11/10 09:51:24;;;;;;;4.27;2.00;;;12.60;99.90;;;;;;5012875;28;20453;-86
2022/11/10 10:17:35;;;;;;;3.57;1.27;;;13.00;99.90;;;;;;5008710;28;20508;-85
2022/11/10 10:30:34;;;;;;;1.50;1.23;;;13.50;99.90;;;;;;4894228;28;20557;-85
2022/11/10 11:33:03;;;;;;;1.93;1.37;;;23.10;81.80;;;;;;5022008;28;20468;-85
2022/11/10 11:35:39;;;;;;;5.70;0.90;;;23.40;80.40;;;;;;5016000;28;20454;-84
2022/11/10 11:38:16;;;;;;;2.83;1.03;;;23.70;73.80;;;;;;5018681;28;20445;-83
2022/11/10 11:40:57;;;;;;;1.43;0.67;;;24.10;75.70;;;;;;5021903;28;20480;-85
2022/11/10 11:44:16;;;;;;;1.30;0.90;;;24.50;71.70;;;;;;5018933;28;20822;-84
2022/11/10 11:46:51;;;;;;;1.30;1.17;;;24.40;71.30;;;;;;5002545;28;20545;-84
2022/11/10 11:49:37;;;;;;;3.50;1.50;;;24.70;74.00;;;;;;5020059;28;20456;-83
2022/11/10 11:52:14;;;;;;;2.10;0.90;;;24.90;69.70;;;;;;5027327;28;20460;-83
2022/11/10 11:54:58;;;;;;;1.43;0.93;;;24.80;68.90;;;;;;5025411;28;20447;-83
2022/11/10 11:57:37;;;;;;;1.73;1.40;;;24.80;70.00;;;;;;5024990;28;20450;-84
2022/11/10 12:00:10;;;;;;;1.30;0.80;;;24.70;67.90;;;;;;5026063;28;20489;-83
2022/11/10 12:03:14;;;;;;;4.70;2.13;;;25.00;74.20;;;;;;5025153;28;20454;-83
2022/11/10 12:05:52;;;;;;;2.90;1.60;;;25.20;65.90;;;;;;4985258;28;20446;-83
2022/11/10 12:08:31;;;;;;;1.57;1.20;;;25.00;64.80;;;;;;5025908;28;20452;-83
2022/11/10 12:11:10;;;;;;;1.63;1.10;;;24.20;64.80;;;;;;5026119;28;20476;-83
2022/11/10 12:13:44;;;;;;;1.03;0.80;;;23.50;66.00;;;;;;5026032;28;20983;-82
2022/11/10 12:16:18;;;;;;;1.70;0.97;;;23.10;67.10;;;;;;5025143;28;20459;-82
2022/11/10 12:18:47;;;;;;;1.80;0.93;;;22.90;68.90;;;;;;5025524;28;20463;-82
2022/11/10 12:21:23;;;;;;;1.30;1.20;;;22.70;69.30;;;;;;5026058;28;20554;-83
2022/11/10 12:24:02;;;;;;;0.70;0.60;;;22.80;68.90;;;;;;5027858;28;20456;-83
2022/11/10 12:26:38;;;;;;;2.00;0.97;;;23.10;72.50;;;;;;5026968;28;20484;-83
2022/11/10 12:29:17;;;;;;;1.40;1.30;;;23.50;67.80;;;;;;5025491;28;20456;-81
2022/11/10 12:31:47;;;;;;;3.37;1.20;;;24.00;67.60;;;;;;5025075;28;20460;-84
2022/11/10 12:34:22;;;;;;;1.17;1.07;;;24.60;66.30;;;;;;5025180;28;20450;-83
2022/11/10 12:36:51;;;;;;;1.77;0.90;;;25.20;66.50;;;;;;5024573;28;20446;-83
2022/11/10 12:39:21;;;;;;;3.13;1.10;;;25.80;61.70;;;;;;5025655;28;20971;-83
2022/11/10 12:41:53;;;;;;;0.80;0.73;;;25.80;60.80;;;;;;5024976;28;20450;-83
2022/11/10 12:44:26;;;;;;;1.30;0.93;;;25.70;59.30;;;;;;5024349;28;20451;-83
2022/11/10 12:46:56;;;;;;;1.37;0.93;;;25.80;60.10;;;;;;5024328;28;20491;-82
2022/11/10 12:49:29;;;;;;;1.23;0.80;;;25.90;59.50;;;;;;5023615;28;21019;-82
2022/11/10 12:52:06;;;;;;;2.00;1.13;;;25.80;57.70;;;;;;5024350;28;20454;-83
2022/11/10 12:54:35;;;;;;;1.03;0.90;;;25.60;57.80;;;;;;5024304;28;20449;-83
2022/11/10 12:57:05;;;;;;;3.73;0.80;;;25.30;57.10;;;;;;5024793;28;20442;-83
2022/11/10 12:59:33;;;;;;;1.70;0.80;;;25.10;57.50;;;;;;5024186;28;20450;-83
2022/11/10 13:02:03;;;;;;;1.10;0.90;;;25.10;58.40;;;;;;5023995;28;20468;-82
2022/11/10 13:04:31;;;;;;;2.77;0.67;;;24.90;57.30;;;;;;5023144;28;20442;-83
2022/11/10 13:07:02;;;;;;;1.03;0.70;;;24.50;57.00;;;;;;5021882;28;20493;-81
2022/11/10 13:09:32;;;;;;;1.23;0.90;;;24.20;56.90;;;;;;5021521;28;20526;-83
2022/11/10 13:12:15;;;;;;;1.40;0.63;;;23.70;58.20;;;;;;5022467;28;20459;-81
2022/11/10 13:14:42;;;;;;;1.00;0.90;;;23.70;58.90;;;;;;5022024;28;20881;-82
2022/11/10 13:17:11;;;;;;;1.10;0.80;;;23.60;58.90;;;;;;5021781;28;20456;-83
2022/11/10 13:19:52;;;;;;;0.80;0.80;;;23.70;59.30;;;;;;5021767;28;20474;-81
2022/11/10 13:22:32;;;;;;;1.27;0.67;;;23.50;58.60;;;;;;5021895;28;20450;-82
2022/11/10 13:25:36;;;;;;;1.23;0.60;;;23.70;59.00;;;;;;5023439;28;20463;-83
2022/11/10 13:28:04;;;;;;;0.93;0.93;;;23.60;58.60;;;;;;5020831;28;20492;-82
2022/11/10 13:30:39;;;;;;;4.63;1.10;;;23.60;59.40;;;;;;5021915;28;20494;-82
2022/11/10 13:33:36;;;;;;;1.70;0.73;;;23.70;59.30;;;;;;5022558;28;20460;-83
2022/11/10 13:36:03;;;;;;;1.37;1.10;;;23.70;59.10;;;;;;5022243;28;20464;-81
2022/11/10 13:38:39;;;;;;;0.80;0.80;;;23.40;58.70;;;;;;5024014;28;20463;-83
2022/11/10 13:41:24;;;;;;;2.07;1.00;;;23.30;58.90;;;;;;5022790;28;20472;-83
2022/11/10 13:43:53;;;;;;;1.23;1.03;;;23.20;59.40;;;;;;5023246;28;21028;-82
2022/11/10 13:46:21;;;;;;;2.17;1.17;;;23.00;58.90;;;;;;5023989;28;20479;-82
2022/11/10 13:49:15;;;;;;;1.43;0.90;;;22.80;58.90;;;;;;5023910;28;20450;-83
2022/11/10 13:51:50;;;;;;;1.90;0.70;;;22.40;60.10;;;;;;5024248;28;20971;-83
2022/11/10 13:54:38;;;;;;;1.00;0.90;;;22.50;61.30;;;;;;5024569;28;20451;-83
2022/11/10 13:57:18;;;;;;;0.83;0.80;;;22.30;61.30;;;;;;5023846;28;20445;-82
2022/11/10 13:59:51;;;;;;;0.87;0.87;;;22.00;61.20;;;;;;5024114;28;20496;-82
2022/11/10 14:02:47;;;;;;;1.10;1.00;;;22.10;61.70;;;;;;5024577;28;20450;-83
2022/11/10 14:06:02;;;;;;;0.70;0.57;;;22.20;61.10;;;;;;5007173;28;20451;-82
2022/11/10 14:08:35;;;;;;;1.50;1.23;;;22.20;59.80;;;;;;5024939;28;20517;-83
2022/11/10 14:11:07;;;;;;;2.40;1.30;;;22.30;60.20;;;;;;5023815;28;20462;-83
2022/11/10 14:13:41;;;;;;;2.10;1.13;;;22.00;60.60;;;;;;5024594;28;20452;-81
2022/11/10 14:16:15;;;;;;;1.17;1.00;;;21.80;61.80;;;;;;5024615;28;20452;-82
2022/11/10 14:18:48;;;;;;;1.47;1.30;;;21.70;62.60;;;;;;5023981;28;20442;-82
2022/11/10 14:21:22;;;;;;;1.40;0.90;;;21.40;64.60;;;;;;5023932;28;20473;-82
2022/11/10 14:23:55;;;;;;;1.77;1.43;;;21.30;64.30;;;;;;5022917;28;20484;-82
2022/11/10 14:26:27;;;;;;;1.20;0.87;;;21.20;64.80;;;;;;5024162;28;20497;-81
2022/11/10 14:28:54;;;;;;;2.50;1.30;;;21.10;65.80;;;;;;5024646;28;20446;-82
2022/11/10 14:31:23;;;;;;;1.63;0.70;;;20.90;64.70;;;;;;5023974;28;20484;-82
2022/11/10 14:33:56;;;;;;;2.73;0.80;;;20.70;65.00;;;;;;5022847;28;20442;-81
2022/11/10 14:36:23;;;;;;;3.00;1.07;;;20.00;65.60;;;;;;5024377;28;20464;-82
2022/11/10 14:38:52;;;;;;;1.90;1.10;;;19.60;67.10;;;;;;5024426;28;20468;-82
2022/11/10 14:41:21;;;;;;;1.50;0.93;;;19.40;68.70;;;;;;5024346;28;20479;-82
2022/11/10 14:44:01;;;;;;;2.00;1.10;;;19.10;69.20;;;;;;5023561;28;20464;-82
2022/11/10 14:46:28;;;;;;;1.80;1.20;;;19.00;71.50;;;;;;5022014;28;20927;-82
2022/11/10 14:49:00;;;;;;;1.63;0.97;;;18.80;71.30;;;;;;5022832;28;20453;-81
2022/11/10 14:51:28;;;;;;;2.40;1.10;;;18.70;72.60;;;;;;5023329;28;20472;-81
2022/11/10 14:53:57;;;;;;;1.57;1.37;;;18.60;72.10;;;;;;5023731;28;20467;-81
2022/11/10 14:56:29;;;;;;;1.87;1.13;;;18.20;73.00;;;;;;5024100;28;20465;-82
2022/11/10 14:58:58;;;;;;;1.40;1.30;;;17.90;74.40;;;;;;5022200;28;20439;-82
2022/11/10 15:01:32;;;;;;;1.10;0.87;;;17.70;75.70;;;;;;5023877;28;20504;-82
2022/11/10 15:04:00;;;;;;;1.13;1.00;;;17.40;76.50;;;;;;5023510;28;20451;-81
2022/11/10 15:06:27;;;;;;;1.10;1.10;;;16.90;77.10;;;;;;5019860;28;20448;-80
2022/11/10 15:08:54;;;;;;;2.07;1.07;;;16.70;79.10;;;;;;5021001;28;20945;-81
2022/11/10 15:11:38;;;;;;;3.50;1.87;;;16.60;80.60;;;;;;5020353;28;21077;-80
2022/11/10 15:14:05;;;;;;;2.80;1.20;;;16.40;81.20;;;;;;5021279;28;20450;-80
2022/11/10 15:16:35;;;;;;;5.43;2.13;;;16.30;82.50;;;;;;5022669;28;20477;-81
2022/11/10 15:19:22;;;;;;;1.10;1.00;;;15.90;83.30;;;;;;5019424;28;20528;-80
2022/11/10 15:21:49;;;;;;;1.87;1.33;;;15.70;85.00;;;;;;5018658;28;20464;-80
2022/11/10 15:24:18;;;;;;;1.17;1.10;;;15.70;86.70;;;;;;5020951;28;20457;-82
2022/11/10 15:26:45;;;;;;;1.43;1.10;;;15.60;87.60;;;;;;5020589;28;20442;-81
2022/11/10 15:29:21;;;;;;;2.50;2.00;;;15.60;87.50;;;;;;5019212;28;20448;-81
2022/11/10 15:31:50;;;;;;;3.03;1.17;;;15.50;88.10;;;;;;5018819;28;20465;-80
2022/11/10 15:34:38;;;;;;;2.57;1.20;;;15.30;89.00;;;;;;5018156;28;20447;-81
2022/11/10 15:37:20;;;;;;;2.57;1.57;;;15.20;89.80;;;;;;5018492;28;20511;-80
2022/11/10 15:39:46;;;;;;;1.07;0.80;;;15.10;90.30;;;;;;5018251;28;20478;-81
2022/11/10 15:42:15;;;;;;;0.80;0.80;;;14.80;91.20;;;;;;5021377;28;20450;-80
2022/11/10 15:44:45;;;;;;;1.10;1.00;;;14.60;91.30;;;;;;5019719;28;20457;-81
2022/11/10 15:47:14;;;;;;;0.90;0.90;;;14.40;91.70;;;;;;5024116;28;21231;-81
2022/11/10 15:49:43;;;;;;;4.53;1.20;;;14.40;92.00;;;;;;5024869;28;20975;-81
2022/11/10 15:52:16;;;;;;;2.27;0.87;;;14.40;92.40;;;;;;5025602;28;20798;-81
2022/11/10 15:54:44;;;;;;;1.73;1.10;;;14.40;93.10;;;;;;5025793;28;20831;-81
2022/11/10 15:57:13;;;;;;;1.33;1.10;;;14.30;93.90;;;;;;5025697;28;20544;-81
2022/11/10 15:59:40;;;;;;;4.43;1.13;;;14.20;94.50;;;;;;5025180;28;20474;-81
2022/11/10 16:02:19;;;;;;;1.50;1.40;;;14.10;94.90;;;;;;5025836;28;20461;-80
2022/11/10 16:04:45;;;;;;;1.33;1.23;;;14.00;95.80;;;;;;5025364;28;20456;-81
2022/11/10 16:07:12;;;;;;;3.53;1.80;;;13.90;96.30;;;;;;5024768;28;20457;-81
2022/11/10 16:09:39;;;;;;;2.13;1.67;;;13.80;96.80;;;;;;5024432;28;20469;-81
2022/11/10 16:12:09;;;;;;;1.80;1.30;;;13.70;97.20;;;;;;5025439;28;20446;-81
2022/11/10 16:14:35;;;;;;;2.20;1.07;;;13.50;97.30;;;;;;5024614;28;20454;-82
2022/11/10 16:17:02;;;;;;;2.23;1.50;;;13.50;97.80;;;;;;5023962;28;20482;-81
2022/11/10 16:19:30;;;;;;;1.53;1.43;;;13.30;98.30;;;;;;5024927;28;20462;-80
2022/11/10 16:21:57;;;;;;;1.70;1.60;;;13.20;98.60;;;;;;5024757;28;20476;-81
2022/11/10 16:24:24;;;;;;;1.77;1.30;;;12.90;99.40;;;;;;5024555;28;20914;-81
2022/11/10 16:26:50;;;;;;;4.03;2.17;;;12.70;99.90;;;;;;5024208;28;20947;-81
2022/11/10 16:29:19;;;;;;;8.77;2.53;;;12.60;99.90;;;;;;5024094;28;20453;-80
2022/11/10 16:31:46;;;;;;;3.23;2.90;;;12.50;99.90;;;;;;5024455;28;20495;-81
2022/11/10 16:34:14;;;;;;;5.77;3.70;;;12.00;99.90;;;;;;5024835;28;20866;-81
2022/11/10 16:36:44;;;;;;;6.10;4.40;;;11.90;99.90;;;;;;5024233;28;20454;-81
2022/11/10 16:39:13;;;;;;;5.33;4.83;;;11.90;99.90;;;;;;5023533;28;20457;-81
2022/11/10 16:41:40;;;;;;;6.83;5.57;;;11.80;99.90;;;;;;5024121;28;20483;-81
2022/11/10 16:44:10;;;;;;;7.90;4.90;;;11.80;99.90;;;;;;5024281;28;20492;-81
2022/11/10 16:46:37;;;;;;;7.77;4.47;;;11.80;99.90;;;;;;5024590;28;20460;-81
2022/11/10 16:49:06;;;;;;;7.13;3.60;;;11.80;99.90;;;;;;5023644;28;20453;-80
2022/11/10 16:51:36;;;;;;;4.30;3.87;;;11.70;99.90;;;;;;5023731;28;20473;-81
2022/11/10 16:54:04;;;;;;;3.60;3.10;;;11.70;99.90;;;;;;5023527;28;20457;-81
2022/11/10 16:56:31;;;;;;;5.13;4.20;;;11.50;99.90;;;;;;5023419;28;20460;-81
2022/11/10 16:58:58;;;;;;;4.13;3.87;;;11.50;99.90;;;;;;5023717;28;20482;-81
2022/11/10 17:01:28;;;;;;;5.50;3.83;;;11.50;99.90;;;;;;5023432;28;20473;-81
2022/11/10 17:03:57;;;;;;;3.93;3.63;;;11.40;99.90;;;;;;5023160;28;20460;-81
2022/11/10 17:06:26;;;;;;;4.40;4.07;;;11.40;99.90;;;;;;5023389;28;20452;-80
2022/11/10 17:08:56;;;;;;;5.53;5.03;;;11.40;99.90;;;;;;5022806;28;20454;-81
2022/11/10 17:11:24;;;;;;;4.13;3.77;;;11.20;99.90;;;;;;5022935;28;21064;-80
2022/11/10 17:13:51;;;;;;;3.90;3.13;;;11.20;99.90;;;;;;5022709;28;20461;-81
2022/11/10 17:16:25;;;;;;;4.40;4.00;;;11.20;99.90;;;;;;5022685;28;20823;-81
2022/11/10 17:18:52;;;;;;;4.10;3.50;;;11.20;99.90;;;;;;5022794;28;20506;-81
2022/11/10 17:21:20;;;;;;;3.50;3.10;;;11.20;99.90;;;;;;5022538;28;20497;-80
2022/11/10 17:23:46;;;;;;;4.90;3.30;;;11.20;99.90;;;;;;5023103;28;20461;-81
2022/11/10 17:26:15;;;;;;;4.87;4.23;;;11.20;99.90;;;;;;5021993;28;20453;-81
2022/11/10 17:28:44;;;;;;;8.73;5.03;;;11.20;99.90;;;;;;5021107;28;20449;-83
2022/11/10 17:31:12;;;;;;;5.80;5.30;;;11.20;99.90;;;;;;5018069;28;21006;-81
2022/11/10 17:33:39;;;;;;;6.47;4.87;;;11.10;99.90;;;;;;5016859;28;20452;-80
2022/11/10 17:36:11;;;;;;;9.30;6.63;;;11.10;99.90;;;;;;5016079;28;20452;-81
2022/11/10 17:38:38;;;;;;;7.77;7.03;;;11.00;99.90;;;;;;5015912;28;20491;-81
2022/11/10 17:41:09;;;;;;;8.80;5.87;;;11.00;99.90;;;;;;5015763;28;20479;-81
2022/11/10 17:43:35;;;;;;;7.50;5.10;;;10.90;99.90;;;;;;5018487;28;20823;-81
2022/11/10 17:46:03;;;;;;;9.10;5.50;;;10.90;99.90;;;;;;5018338;28;20463;-81
2022/11/10 17:48:30;;;;;;;5.77;5.27;;;10.80;99.90;;;;;;5017309;28;20449;-81
2022/11/10 17:50:57;;;;;;;5.30;4.53;;;10.80;99.90;;;;;;5017357;28;20477;-82
2022/11/10 17:53:26;;;;;;;5.10;4.33;;;10.70;99.90;;;;;;5017897;28;20453;-81
2022/11/10 17:55:53;;;;;;;6.43;4.30;;;10.70;99.90;;;;;;5018550;28;20825;-81
2022/11/10 17:58:20;;;;;;;7.57;3.53;;;10.70;99.90;;;;;;5018151;28;21009;-81
2022/11/10 18:00:48;;;;;;;5.20;4.00;;;10.60;99.90;;;;;;5017798;28;20472;-82
2022/11/10 18:03:18;;;;;;;8.07;6.97;;;10.60;99.90;;;;;;5017830;28;20460;-81
2022/11/10 18:05:45;;;;;;;8.37;6.20;;;10.60;99.90;;;;;;5017755;28;20825;-81
2022/11/10 18:08:13;;;;;;;8.00;6.27;;;10.50;99.90;;;;;;5016927;28;20454;-81
2022/11/10 18:10:41;;;;;;;7.83;5.50;;;10.50;99.90;;;;;;5017778;28;20473;-81
2022/11/10 18:13:09;;;;;;;5.53;5.00;;;10.40;99.90;;;;;;5018143;28;20461;-82
2022/11/10 18:15:35;;;;;;;6.90;6.20;;;10.40;99.90;;;;;;5017717;28;20448;-81
2022/11/10 18:18:05;;;;;;;5.95;4.97;;;10.40;99.90;;;;;;5016411;28;20485;-83
2022/11/10 18:20:33;;;;;;;6.65;5.82;;;10.30;99.90;;;;;;5016933;28;20238;-83
2022/11/10 18:23:00;;;;;;;7.03;6.38;;;10.30;99.90;;;;;;5017345;28;20216;-82
2022/11/10 18:25:27;;;;;;;8.10;7.50;;;10.20;99.90;;;;;;5018101;28;20232;-83
2022/11/10 18:27:54;;;;;;;8.35;7.30;;;10.10;99.90;;;;;;5017540;28;20479;-82
2022/11/10 18:30:20;;;;;;;15.07;10.93;;;10.10;99.90;;;;;;5018158;28;20272;-82
2022/11/10 18:32:47;;;;;;;20.33;12.88;;;10.00;99.90;;;;;;5017127;28;20216;-82
2022/11/10 18:35:14;;;;;;;14.68;11.63;;;9.90;99.90;;;;;;5017490;28;20217;-83
2022/11/10 18:37:42;;;;;;;13.85;11.95;;;9.90;99.90;;;;;;5016462;28;20264;-82
2022/11/10 18:40:10;;;;;;;16.73;13.13;;;9.80;99.90;;;;;;5017133;28;20233;-81
2022/11/10 18:42:37;;;;;;;14.65;13.00;;;9.80;99.90;;;;;;5016690;28;20208;-81
2022/11/10 18:45:04;;;;;;;22.88;18.20;;;9.70;99.90;;;;;;5017224;28;20306;-84
2022/11/10 18:47:31;;;;;;;21.52;18.40;;;9.70;99.90;;;;;;5015319;28;20204;-81
2022/11/10 18:49:57;;;;;;;25.00;17.60;;;9.60;99.90;;;;;;5015408;28;20324;-84
2022/11/10 18:52:24;;;;;;;21.35;16.77;;;9.70;99.90;;;;;;5016383;28;20463;-81
2022/11/10 18:54:52;;;;;;;17.90;15.10;;;9.60;99.90;;;;;;5016650;28;20213;-84
2022/11/10 18:57:19;;;;;;;21.42;17.45;;;9.60;99.90;;;;;;5016350;28;20456;-81
2022/11/10 18:59:46;;;;;;;30.17;24.73;;;9.60;99.90;;;;;;5016830;28;20236;-80
2022/11/10 19:02:13;;;;;;;16.58;14.88;;;9.60;99.90;;;;;;5016786;28;20218;-81
2022/11/10 19:04:40;;;;;;;16.50;11.93;;;9.60;99.90;;;;;;5016900;28;20203;-81
2022/11/10 19:07:07;;;;;;;16.38;14.88;;;9.60;99.90;;;;;;5015884;28;20212;-83
2022/11/10 19:09:34;;;;;;;14.20;11.55;;;9.50;99.90;;;;;;5016307;28;20202;-82
2022/11/10 19:12:02;;;;;;;13.65;12.27;;;9.50;99.90;;;;;;5016489;28;20215;-83
2022/11/10 19:14:28;;;;;;;14.02;12.68;;;9.40;99.90;;;;;;5016222;28;20239;-83
2022/11/10 19:16:55;;;;;;;13.85;12.38;;;9.40;99.90;;;;;;5016245;28;20214;-83
2022/11/10 19:19:22;;;;;;;14.98;11.40;;;9.30;99.90;;;;;;5016122;28;20233;-82
2022/11/10 19:21:49;;;;;;;16.80;10.90;;;9.30;99.90;;;;;;5016310;28;20204;-83
2022/11/10 19:24:16;;;;;;;13.57;11.80;;;9.30;99.90;;;;;;5016334;28;20218;-83
2022/11/10 19:26:42;;;;;;;10.80;9.77;;;9.20;99.90;;;;;;5016307;28;20228;-81
2022/11/10 19:29:11;;;;;;;12.57;10.32;;;9.20;99.90;;;;;;5016277;28;20239;-83
2022/11/10 19:31:37;;;;;;;16.45;10.63;;;9.20;99.90;;;;;;5016156;28;20247;-82
2022/11/10 19:34:04;;;;;;;12.10;10.85;;;9.20;99.90;;;;;;5016654;28;20208;-83
2022/11/10 19:36:31;;;;;;;12.02;9.30;;;9.20;99.90;;;;;;5016004;28;20558;-82
2022/11/10 19:38:57;;;;;;;11.98;10.05;;;9.20;99.90;;;;;;5015547;28;20235;-82
2022/11/10 19:41:26;;;;;;;18.40;16.58;;;9.10;99.90;;;;;;5015933;28;20715;-83
2022/11/10 19:43:53;;;;;;;20.67;16.08;;;9.10;99.90;;;;;;5015932;28;20302;-82
2022/11/10 19:46:22;;;;;;;30.63;22.58;;;9.10;99.90;;;;;;5016065;28;20209;-83
2022/11/10 19:48:50;;;;;;;47.03;32.80;;;9.00;99.90;;;;;;5015828;28;20669;-83
2022/11/10 19:51:18;;;;;;;21.40;19.08;;;8.90;99.90;;;;;;5017375;28;20231;-83
2022/11/10 19:53:46;;;;;;;16.73;11.98;;;8.80;99.90;;;;;;5021076;28;20219;-82
2022/11/10 19:56:15;;;;;;;12.00;10.75;;;8.70;99.90;;;;;;5020808;28;20219;-82
2022/11/10 19:58:42;;;;;;;11.23;10.15;;;8.70;99.90;;;;;;5019167;28;20228;-82
2022/11/10 20:01:10;;;;;;;12.35;11.18;;;8.70;99.90;;;;;;5019098;28;20582;-83
2022/11/10 20:03:39;;;;;;;12.93;10.35;;;8.70;99.90;;;;;;5019008;28;20219;-82